首页
METAR-TAF:

METAR-TAF

机场 :

Moody Air Force Base

Valdosta, 喬治亞, 美国

纬度: 30-58N, 经度: 083-12W, 海拔: 71米

当前天气观测

该预报发布于11分钟前的13:56 UTC
风速5节,风向东北
温度 25°C
湿度 100%
气压 1017 hPa
能見度: 16.1公里
多云层高于800英尺
多云层高于1500英尺

METAR: KVAD 251356Z AUTO 05005KT 10SM BKN008 BKN015 25/25 A3002 RMK AO2 BKN008 V OVC SLP166 T02500250 $

时间: 10:07 (14:07 UTC)

预报

该预报发布于22小时和7分钟前的16:00 UTC
预报有效从23日的 16点(UTC)到 24日的 22点(UTC)
风速6节,风向东南
能见度10公里或以上
散云层高于3000英尺
散云层高于20000英尺
短暂存在
从 24日的 20点(UTC)到 24日的 22点(UTC)
风速15节,风向多变,有时为25节阵风
能見度: 4800
多云层高于4000英尺, 积雨云.
雷暴, 小雨

TAF: KVAD 231600Z 2316/2422 14006KT 9999 SCT030 SCT200 QNH2996INS TEMPO 2420/2422 VRB15G25KT 4800 -TSRA BKN040CB TX32/2320Z TN24/2410Z

超过4000个机场的气象观测和天气预报(METAR&TAF报告)。

可查询的气象台以黄色和红色小点在地图上表示。

将鼠标移到小点上方,可查看气象台名称。

然后点击查看天气观测和预报。

如需切换地图:点击带黑十字的绿色按钮放大地图;点击带横线的绿色按钮缩小地图;或者点击绿色箭头查看邻近地区的地图。


METAR-TAF: